Time;durP1;ratioP1;P1;durP2;ratioP2;P2;SDS_P1;SDS_P2;PMS_P1;PMS_P2;Temp;Humidity;BMP_temperature;BMP_pressure;BME280_temperature;BME280_humidity;BME280_pressure;Samples;Min_cycle;Max_cycle;Signal;HPM_P1;HPM_P2
2023/05/18 00:01:17;;;;;;;5.47;4.45;;;;;;;;;;5012343;28;20412;-85
2023/05/18 00:03:43;;;;;;;7.38;4.47;;;;;;;;;;5013480;28;20400;-85
2023/05/18 00:06:09;;;;;;;5.93;4.32;;;;;;;;;;5024679;28;20420;-84
2023/05/18 00:08:35;;;;;;;6.25;4.40;;;;;;;;;;5011972;28;20381;-84
2023/05/18 00:11:02;;;;;;;6.90;4.67;;;;;;;;;;5016796;28;20960;-84
2023/05/18 00:13:28;;;;;;;6.35;4.50;;;;;;;;;;5020589;28;20404;-84
2023/05/18 00:15:55;;;;;;;5.68;4.63;;;;;;;;;;5011830;28;20476;-84
2023/05/18 00:18:22;;;;;;;6.10;4.40;;;;;;;;;;5016584;28;20499;-84
2023/05/18 00:20:49;;;;;;;4.70;4.30;;;;;;;;;;5013919;28;20501;-84
2023/05/18 00:23:15;;;;;;;5.18;4.43;;;;;;;;;;5015733;28;20402;-83
2023/05/18 00:25:41;;;;;;;6.93;4.63;;;;;;;;;;5029868;28;20399;-83
2023/05/18 00:28:08;;;;;;;5.73;4.70;;;;;;;;;;5031592;28;20397;-84
2023/05/18 00:30:34;;;;;;;5.38;4.07;;;;;;;;;;5031496;28;20474;-84
2023/05/18 00:33:00;;;;;;;5.27;4.43;;;;;;;;;;5031214;28;20391;-84
2023/05/18 00:35:26;;;;;;;5.05;4.43;;;;;;;;;;5018352;28;20476;-84
2023/05/18 00:37:52;;;;;;;6.50;4.70;;;;;;;;;;5015404;28;20962;-84
2023/05/18 00:40:18;;;;;;;6.68;4.47;;;;;;;;;;5019117;28;20749;-83
2023/05/18 00:42:44;;;;;;;5.05;4.55;;;;;;;;;;5014437;28;20838;-83
2023/05/18 00:45:10;;;;;;;7.72;5.20;;;;;;;;;;5019292;28;20827;-84
2023/05/18 00:47:36;;;;;;;7.05;4.93;;;;;;;;;;5027827;28;20396;-83
2023/05/18 00:50:02;;;;;;;5.55;4.32;;;;;;;;;;5017276;28;20739;-84
2023/05/18 00:52:28;;;;;;;6.25;5.10;;;;;;;;;;5021985;28;20399;-84
2023/05/18 00:54:57;;;;;;;6.20;4.95;;;;;;;;;;5015181;28;20396;-83
2023/05/18 00:57:23;;;;;;;8.75;5.30;;;;;;;;;;5016939;28;20414;-84
2023/05/18 00:59:50;;;;;;;5.47;4.60;;;;;;;;;;5013138;28;20381;-84
2023/05/18 01:02:16;;;;;;;6.28;5.00;;;;;;;;;;5012734;28;20469;-83
2023/05/18 01:04:42;;;;;;;7.60;5.30;;;;;;;;;;5013877;28;20406;-84
2023/05/18 01:07:08;;;;;;;6.82;4.70;;;;;;;;;;5028634;28;20383;-83
2023/05/18 01:09:34;;;;;;;4.80;4.28;;;;;;;;;;5028580;28;20387;-84
2023/05/18 01:12:08;;;;;;;5.03;4.53;;;;;;;;;;5027944;28;20394;-83
2023/05/18 01:14:54;;;;;;;5.00;4.50;;;;;;;;;;5025081;28;20466;-84
2023/05/18 01:17:32;;;;;;;6.82;4.55;;;;;;;;;;5016394;28;20478;-84
2023/05/18 01:19:58;;;;;;;5.50;4.50;;;;;;;;;;5029356;28;20402;-83
2023/05/18 01:22:37;;;;;;;4.80;4.10;;;;;;;;;;5024007;28;20775;-83
2023/05/18 01:25:05;;;;;;;5.28;4.68;;;;;;;;;;5015244;28;20384;-84
2023/05/18 01:27:36;;;;;;;5.43;4.40;;;;;;;;;;5015333;28;20396;-84
2023/05/18 01:30:02;;;;;;;5.95;4.78;;;;;;;;;;5014753;28;20385;-84
2023/05/18 01:32:28;;;;;;;4.93;4.30;;;;;;;;;;5015478;28;20982;-84
2023/05/18 01:34:54;;;;;;;4.87;4.03;;;;;;;;;;5015241;28;20388;-84
2023/05/18 01:37:20;;;;;;;5.57;4.47;;;;;;;;;;5015375;28;20384;-84
2023/05/18 01:39:46;;;;;;;5.25;4.55;;;;;;;;;;5015182;28;20467;-84
2023/05/18 01:42:14;;;;;;;6.53;4.57;;;;;;;;;;5019493;28;20901;-84
2023/05/18 01:44:47;;;;;;;5.72;4.40;;;;;;;;;;5023015;28;20432;-84
2023/05/18 01:47:14;;;;;;;5.97;4.47;;;;;;;;;;5015157;28;20879;-84
2023/05/18 01:49:50;;;;;;;5.15;4.43;;;;;;;;;;5018376;28;20456;-84
2023/05/18 01:52:20;;;;;;;6.53;4.65;;;;;;;;;;5015556;28;20401;-82
2023/05/18 01:54:50;;;;;;;6.35;4.85;;;;;;;;;;5025625;28;20470;-82
2023/05/18 01:57:18;;;;;;;5.72;4.40;;;;;;;;;;5033605;28;20385;-82
2023/05/18 01:59:44;;;;;;;6.13;4.70;;;;;;;;;;5033462;28;20394;-84
2023/05/18 02:02:11;;;;;;;5.43;4.70;;;;;;;;;;5032752;28;20454;-83
2023/05/18 02:04:37;;;;;;;6.18;4.72;;;;;;;;;;5030359;28;20416;-83
2023/05/18 02:07:03;;;;;;;6.45;4.63;;;;;;;;;;5031875;28;20395;-83
2023/05/18 02:09:29;;;;;;;5.88;4.57;;;;;;;;;;5022644;28;20401;-83
2023/05/18 02:11:55;;;;;;;6.93;4.50;;;;;;;;;;5026750;28;20391;-83
2023/05/18 02:14:21;;;;;;;4.97;4.45;;;;;;;;;;5040150;28;20385;-83
2023/05/18 02:16:51;;;;;;;7.28;4.85;;;;;;;;;;5014554;28;20763;-84
2023/05/18 02:19:18;;;;;;;6.18;4.43;;;;;;;;;;5024763;28;20751;-83
2023/05/18 02:21:44;;;;;;;6.35;4.75;;;;;;;;;;5033361;28;20427;-83
2023/05/18 02:24:11;;;;;;;6.13;4.65;;;;;;;;;;5015731;28;20534;-83
2023/05/18 02:26:37;;;;;;;6.10;4.57;;;;;;;;;;5015793;28;20424;-83
2023/05/18 02:29:05;;;;;;;5.55;4.68;;;;;;;;;;5022482;28;20835;-83
2023/05/18 02:31:31;;;;;;;4.90;4.40;;;;;;;;;;5014234;28;20475;-83
2023/05/18 02:33:57;;;;;;;6.25;4.50;;;;;;;;;;5014462;28;20397;-83
2023/05/18 02:36:23;;;;;;;5.28;4.43;;;;;;;;;;5024439;28;20461;-83
2023/05/18 02:38:49;;;;;;;5.00;4.50;;;;;;;;;;5014017;28;20423;-84
2023/05/18 02:41:15;;;;;;;5.47;4.57;;;;;;;;;;5014235;28;20408;-83
2023/05/18 02:43:41;;;;;;;4.68;4.20;;;;;;;;;;5013790;28;20399;-83
2023/05/18 02:46:07;;;;;;;5.53;4.40;;;;;;;;;;5013846;28;20930;-83
2023/05/18 02:48:33;;;;;;;5.82;4.30;;;;;;;;;;5013502;28;20392;-84
2023/05/18 02:50:59;;;;;;;6.60;4.55;;;;;;;;;;5018611;28;20402;-83
2023/05/18 02:53:25;;;;;;;5.95;4.63;;;;;;;;;;5033031;28;20399;-83
2023/05/18 02:55:56;;;;;;;7.13;4.53;;;;;;;;;;5019481;28;20402;-83
2023/05/18 02:58:24;;;;;;;5.10;4.28;;;;;;;;;;5023062;28;20427;-83
2023/05/18 03:00:51;;;;;;;7.07;4.50;;;;;;;;;;5013661;28;20500;-83
2023/05/18 03:03:17;;;;;;;5.28;4.00;;;;;;;;;;5013939;28;20935;-83
2023/05/18 03:05:43;;;;;;;5.82;4.35;;;;;;;;;;5016267;28;20391;-83
2023/05/18 03:08:09;;;;;;;5.78;4.18;;;;;;;;;;5013524;28;20799;-84
2023/05/18 03:10:36;;;;;;;6.55;4.82;;;;;;;;;;5032152;28;20394;-83
2023/05/18 03:13:02;;;;;;;8.10;4.73;;;;;;;;;;5031514;28;20383;-83
2023/05/18 03:15:31;;;;;;;6.32;4.68;;;;;;;;;;5022006;28;20389;-83
2023/05/18 03:18:00;;;;;;;8.38;4.57;;;;;;;;;;5030565;28;20461;-83
2023/05/18 03:20:28;;;;;;;5.85;4.78;;;;;;;;;;5022914;28;20385;-82
2023/05/18 03:22:54;;;;;;;5.65;4.60;;;;;;;;;;5012865;28;20911;-83
2023/05/18 03:25:21;;;;;;;6.15;5.13;;;;;;;;;;5013349;28;20388;-83
2023/05/18 03:27:47;;;;;;;5.68;4.70;;;;;;;;;;5026716;28;20850;-83
2023/05/18 03:30:13;;;;;;;6.43;5.35;;;;;;;;;;5013160;28;20392;-83
2023/05/18 03:32:40;;;;;;;6.47;5.40;;;;;;;;;;5013414;28;20412;-83
2023/05/18 03:35:06;;;;;;;6.97;5.30;;;;;;;;;;5023479;28;20403;-83
2023/05/18 03:37:32;;;;;;;8.43;5.30;;;;;;;;;;5030547;28;20375;-83
2023/05/18 03:39:59;;;;;;;7.85;5.30;;;;;;;;;;5031577;28;20416;-83
2023/05/18 03:42:25;;;;;;;5.82;5.13;;;;;;;;;;5022764;28;20411;-82
2023/05/18 03:44:51;;;;;;;6.63;5.30;;;;;;;;;;5031887;28;20402;-83
2023/05/18 03:47:17;;;;;;;7.72;5.45;;;;;;;;;;5032497;28;20387;-82
2023/05/18 03:49:43;;;;;;;7.72;5.45;;;;;;;;;;5032160;28;20383;-82
2023/05/18 03:52:10;;;;;;;6.53;5.10;;;;;;;;;;5032434;28;20394;-83
2023/05/18 03:54:36;;;;;;;6.45;5.07;;;;;;;;;;5031011;28;20439;-83
2023/05/18 03:57:02;;;;;;;6.73;5.40;;;;;;;;;;5032300;28;20391;-83
2023/05/18 03:59:28;;;;;;;6.43;5.13;;;;;;;;;;5031846;28;20387;-83
2023/05/18 04:01:54;;;;;;;6.18;4.78;;;;;;;;;;5031874;28;20425;-82
2023/05/18 04:04:22;;;;;;;6.20;4.90;;;;;;;;;;5032569;28;20387;-83
2023/05/18 04:06:50;;;;;;;6.43;5.25;;;;;;;;;;5032271;28;20375;-83
2023/05/18 04:09:16;;;;;;;8.02;4.82;;;;;;;;;;5029514;28;20401;-83
2023/05/18 04:11:43;;;;;;;6.10;4.90;;;;;;;;;;5020626;28;20783;-84
2023/05/18 04:14:09;;;;;;;6.18;5.10;;;;;;;;;;5028847;28;20391;-83
2023/05/18 04:16:35;;;;;;;6.57;5.23;;;;;;;;;;5023341;28;20473;-83
2023/05/18 04:19:03;;;;;;;7.18;5.13;;;;;;;;;;5031598;28;20873;-83
2023/05/18 04:21:34;;;;;;;5.97;4.90;;;;;;;;;;5031924;28;20509;-83
2023/05/18 04:24:03;;;;;;;8.25;4.88;;;;;;;;;;5032022;28;20438;-83
2023/05/18 04:26:30;;;;;;;6.55;4.90;;;;;;;;;;5031550;28;20766;-82
2023/05/18 04:28:58;;;;;;;6.75;4.82;;;;;;;;;;5022772;28;20970;-81
2023/05/18 04:31:25;;;;;;;7.25;5.10;;;;;;;;;;5024498;28;20406;-82
2023/05/18 04:33:51;;;;;;;7.05;4.75;;;;;;;;;;5011833;28;20471;-82
2023/05/18 04:36:19;;;;;;;7.60;4.53;;;;;;;;;;5010638;28;20470;-81
2023/05/18 04:38:45;;;;;;;6.80;4.83;;;;;;;;;;5027793;28;20514;-82
2023/05/18 04:41:11;;;;;;;4.65;4.25;;;;;;;;;;5031097;28;20451;-81
2023/05/18 04:43:37;;;;;;;6.22;4.50;;;;;;;;;;5029980;28;20472;-82
2023/05/18 04:46:05;;;;;;;7.50;4.55;;;;;;;;;;5031411;28;20437;-82
2023/05/18 04:48:32;;;;;;;7.43;4.30;;;;;;;;;;5028504;28;20457;-83
2023/05/18 04:50:58;;;;;;;6.10;4.50;;;;;;;;;;5022989;28;20419;-82
2023/05/18 04:53:26;;;;;;;7.32;4.70;;;;;;;;;;5026030;28;20417;-83
2023/05/18 04:55:53;;;;;;;7.00;4.55;;;;;;;;;;5030731;28;20383;-82
2023/05/18 04:58:19;;;;;;;5.45;4.15;;;;;;;;;;5030930;28;20874;-82
2023/05/18 05:00:45;;;;;;;5.47;4.07;;;;;;;;;;5031386;28;20403;-82
2023/05/18 05:03:11;;;;;;;6.13;4.22;;;;;;;;;;5031134;28;20397;-81
2023/05/18 05:05:37;;;;;;;6.00;4.47;;;;;;;;;;5030992;28;20478;-83
2023/05/18 05:08:05;;;;;;;6.40;4.03;;;;;;;;;;5019873;28;20809;-82
2023/05/18 05:10:31;;;;;;;6.55;4.57;;;;;;;;;;5025500;28;20483;-82
2023/05/18 05:12:57;;;;;;;6.78;4.80;;;;;;;;;;5018327;28;20486;-83
2023/05/18 05:15:23;;;;;;;5.32;4.20;;;;;;;;;;5030715;28;20445;-83
2023/05/18 05:17:49;;;;;;;5.53;4.13;;;;;;;;;;5011508;28;20477;-83
2023/05/18 05:20:16;;;;;;;5.90;4.00;;;;;;;;;;5011545;28;20424;-82
2023/05/18 05:22:42;;;;;;;9.27;4.40;;;;;;;;;;5011431;28;20424;-85
2023/05/18 05:25:08;;;;;;;4.47;4.00;;;;;;;;;;5024964;28;20375;-84
2023/05/18 05:27:34;;;;;;;6.30;4.40;;;;;;;;;;5031195;28;20425;-84
2023/05/18 05:30:00;;;;;;;5.75;4.25;;;;;;;;;;5014224;28;20391;-85
2023/05/18 05:32:26;;;;;;;6.25;4.47;;;;;;;;;;5020895;28;20961;-86
2023/05/18 05:34:52;;;;;;;6.22;4.28;;;;;;;;;;5029763;28;20466;-83
2023/05/18 05:37:18;;;;;;;7.63;4.55;;;;;;;;;;5018977;28;20390;-83
2023/05/18 05:39:44;;;;;;;6.03;4.40;;;;;;;;;;5018539;28;20918;-83
2023/05/18 05:42:10;;;;;;;6.50;4.30;;;;;;;;;;5026816;28;20423;-85
2023/05/18 05:44:38;;;;;;;7.82;4.55;;;;;;;;;;5017884;28;20466;-87
2023/05/18 05:47:04;;;;;;;7.28;4.50;;;;;;;;;;5017475;28;20390;-85
2023/05/18 05:49:30;;;;;;;5.03;3.95;;;;;;;;;;5028795;28;20862;-85
2023/05/18 05:51:56;;;;;;;7.13;4.33;;;;;;;;;;5030215;28;20437;-83
2023/05/18 05:54:22;;;;;;;5.30;4.15;;;;;;;;;;5030604;28;20433;-85
2023/05/18 05:56:48;;;;;;;6.13;4.20;;;;;;;;;;5030891;28;20870;-84
2023/05/18 05:59:14;;;;;;;7.68;4.45;;;;;;;;;;5030734;28;20425;-85
2023/05/18 06:01:40;;;;;;;6.95;4.25;;;;;;;;;;5030085;28;20445;-85
2023/05/18 06:04:09;;;;;;;10.35;4.35;;;;;;;;;;5016347;28;20391;-83
2023/05/18 06:06:37;;;;;;;7.25;4.03;;;;;;;;;;5031080;28;20411;-85
2023/05/18 06:09:06;;;;;;;6.63;4.30;;;;;;;;;;5033776;28;20391;-84
2023/05/18 06:11:32;;;;;;;6.40;4.32;;;;;;;;;;5034438;28;20934;-85
2023/05/18 06:13:59;;;;;;;6.65;4.20;;;;;;;;;;5034223;28;20445;-84
2023/05/18 06:16:25;;;;;;;5.97;4.40;;;;;;;;;;5034007;28;20388;-83
2023/05/18 06:18:51;;;;;;;7.13;4.57;;;;;;;;;;5032462;28;20391;-84
2023/05/18 06:21:17;;;;;;;7.20;4.30;;;;;;;;;;5023406;28;20754;-85
2023/05/18 06:23:43;;;;;;;6.85;4.78;;;;;;;;;;5026154;28;20910;-83
2023/05/18 06:26:09;;;;;;;8.25;4.60;;;;;;;;;;5015386;28;21181;-85
2023/05/18 06:28:35;;;;;;;6.05;4.90;;;;;;;;;;5029602;28;20429;-85
2023/05/18 06:31:01;;;;;;;8.15;5.13;;;;;;;;;;5015750;28;20404;-85
2023/05/18 06:33:27;;;;;;;9.35;5.10;;;;;;;;;;5018885;28;20437;-82
2023/05/18 06:35:54;;;;;;;8.30;5.13;;;;;;;;;;5032060;28;20399;-83
2023/05/18 06:38:20;;;;;;;9.23;5.38;;;;;;;;;;5029916;28;20484;-84
2023/05/18 06:40:46;;;;;;;8.25;5.18;;;;;;;;;;5028437;28;20421;-85
2023/05/18 06:43:12;;;;;;;8.30;5.40;;;;;;;;;;5033444;28;20387;-83
2023/05/18 06:45:38;;;;;;;6.53;4.75;;;;;;;;;;5033861;28;20746;-82
2023/05/18 06:48:04;;;;;;;5.70;4.70;;;;;;;;;;5033600;28;20383;-85
2023/05/18 06:50:30;;;;;;;6.85;4.95;;;;;;;;;;5033359;28;20441;-83
2023/05/18 06:52:56;;;;;;;7.85;4.70;;;;;;;;;;5033867;28;20414;-83
2023/05/18 06:55:22;;;;;;;9.00;5.18;;;;;;;;;;5033830;28;20738;-83
2023/05/18 06:57:48;;;;;;;6.72;4.90;;;;;;;;;;5031619;28;20388;-83
2023/05/18 07:00:14;;;;;;;7.63;5.20;;;;;;;;;;5033097;28;20400;-83
2023/05/18 07:02:42;;;;;;;6.50;5.18;;;;;;;;;;5033367;28;20874;-83
2023/05/18 07:05:08;;;;;;;6.22;5.05;;;;;;;;;;5033311;28;20853;-84
2023/05/18 07:07:37;;;;;;;6.90;5.20;;;;;;;;;;5032841;28;20394;-82
2023/05/18 07:10:03;;;;;;;8.80;5.43;;;;;;;;;;5024755;28;20453;-81
2023/05/18 07:12:29;;;;;;;8.20;6.00;;;;;;;;;;5026700;28;20391;-84
2023/05/18 07:14:55;;;;;;;6.55;5.47;;;;;;;;;;5031860;28;20391;-84
2023/05/18 07:17:21;;;;;;;6.68;5.30;;;;;;;;;;5031598;28;20399;-85
2023/05/18 07:19:47;;;;;;;6.40;5.53;;;;;;;;;;5022716;28;20446;-84
2023/05/18 07:22:13;;;;;;;8.45;5.07;;;;;;;;;;5027291;28;20419;-84
2023/05/18 07:24:39;;;;;;;6.38;4.80;;;;;;;;;;5033192;28;20390;-82
2023/05/18 07:27:05;;;;;;;5.70;5.10;;;;;;;;;;5032860;28;20528;-83
2023/05/18 07:29:31;;;;;;;7.03;4.82;;;;;;;;;;5018421;28;20821;-84
2023/05/18 07:31:57;;;;;;;6.43;5.72;;;;;;;;;;5013081;28;20389;-85
2023/05/18 07:34:25;;;;;;;6.63;5.38;;;;;;;;;;5024942;28;20719;-84
2023/05/18 07:36:51;;;;;;;7.55;5.68;;;;;;;;;;5014268;28;20403;-83
2023/05/18 07:39:18;;;;;;;9.15;5.50;;;;;;;;;;5012804;28;20385;-83
2023/05/18 07:41:46;;;;;;;8.93;6.00;;;;;;;;;;5012819;28;20444;-82
2023/05/18 07:44:12;;;;;;;6.93;5.70;;;;;;;;;;5020147;28;20870;-84
2023/05/18 07:46:38;;;;;;;7.60;6.10;;;;;;;;;;5017576;28;20468;-84
2023/05/18 07:49:04;;;;;;;7.22;5.97;;;;;;;;;;5012029;28;20416;-83
2023/05/18 07:51:30;;;;;;;8.00;5.90;;;;;;;;;;5024016;28;20842;-84
2023/05/18 07:53:56;;;;;;;6.07;5.43;;;;;;;;;;5031453;28;20387;-84
2023/05/18 07:56:23;;;;;;;7.03;5.50;;;;;;;;;;5022081;28;20447;-85
2023/05/18 07:58:49;;;;;;;6.93;5.32;;;;;;;;;;5027980;28;20386;-85
2023/05/18 08:01:15;;;;;;;6.47;5.05;;;;;;;;;;5031627;28;20414;-86
2023/05/18 08:03:41;;;;;;;7.20;5.18;;;;;;;;;;5032320;28;20386;-86
2023/05/18 08:06:07;;;;;;;7.03;5.13;;;;;;;;;;5030248;28;20389;-86
2023/05/18 08:08:36;;;;;;;7.30;5.15;;;;;;;;;;5029091;28;20391;-86
2023/05/18 08:11:02;;;;;;;5.65;4.40;;;;;;;;;;5025877;28;20901;-85
2023/05/18 08:13:28;;;;;;;6.82;5.10;;;;;;;;;;5024133;28;20402;-87
2023/05/18 08:15:54;;;;;;;4.80;4.23;;;;;;;;;;5032127;28;20407;-83
2023/05/18 08:18:21;;;;;;;6.43;4.50;;;;;;;;;;5023591;28;20402;-85
2023/05/18 08:20:48;;;;;;;5.18;4.30;;;;;;;;;;5028243;28;20390;-80
2023/05/18 08:23:14;;;;;;;5.47;4.20;;;;;;;;;;5032151;28;20444;-87
2023/05/18 08:25:40;;;;;;;5.68;4.50;;;;;;;;;;5031345;28;20395;-91
2023/05/18 08:28:06;;;;;;;5.60;4.25;;;;;;;;;;5028919;28;20399;-88
2023/05/18 08:30:32;;;;;;;6.00;4.00;;;;;;;;;;5018899;28;20795;-86
2023/05/18 08:32:58;;;;;;;5.80;4.20;;;;;;;;;;5017605;28;20393;-84
2023/05/18 08:35:24;;;;;;;7.03;3.80;;;;;;;;;;5016851;28;20386;-84
2023/05/18 08:37:50;;;;;;;5.53;3.67;;;;;;;;;;5030068;28;20387;-86
2023/05/18 08:40:16;;;;;;;4.15;3.50;;;;;;;;;;5036133;28;20387;-86
2023/05/18 08:42:47;;;;;;;6.03;3.40;;;;;;;;;;5036018;28;20865;-85
2023/05/18 08:45:13;;;;;;;3.85;3.40;;;;;;;;;;5033737;28;21160;-85
2023/05/18 08:47:40;;;;;;;5.05;3.40;;;;;;;;;;5030852;28;20889;-86
2023/05/18 08:50:06;;;;;;;4.22;2.83;;;;;;;;;;5031642;28;20392;-85
2023/05/18 08:52:35;;;;;;;4.72;3.30;;;;;;;;;;5030383;28;20810;-85
2023/05/18 08:55:04;;;;;;;4.35;3.15;;;;;;;;;;5031380;28;20386;-85
2023/05/18 08:57:32;;;;;;;4.75;3.22;;;;;;;;;;5031018;28;20441;-84
2023/05/18 09:00:00;;;;;;;4.43;3.00;;;;;;;;;;5029782;28;20387;-85
2023/05/18 09:02:26;;;;;;;4.40;3.33;;;;;;;;;;5025451;28;20893;-86
2023/05/18 09:04:52;;;;;;;4.95;3.40;;;;;;;;;;5024733;28;20391;-86
2023/05/18 09:07:20;;;;;;;5.05;3.15;;;;;;;;;;5026572;28;20397;-85
2023/05/18 09:09:47;;;;;;;6.22;3.47;;;;;;;;;;5030088;28;20394;-86
2023/05/18 09:12:13;;;;;;;5.03;3.08;;;;;;;;;;5029380;28;20389;-85
2023/05/18 09:14:40;;;;;;;3.95;3.10;;;;;;;;;;5023921;28;20465;-86
2023/05/18 09:17:06;;;;;;;4.07;3.28;;;;;;;;;;5024281;28;20400;-85
2023/05/18 09:19:32;;;;;;;4.05;3.00;;;;;;;;;;5024396;28;20486;-85
2023/05/18 09:21:58;;;;;;;4.60;2.88;;;;;;;;;;5028314;28;20503;-85
2023/05/18 09:24:24;;;;;;;3.63;2.70;;;;;;;;;;5026396;28;20491;-85
2023/05/18 09:26:51;;;;;;;3.92;2.65;;;;;;;;;;5014594;28;20415;-86
2023/05/18 09:29:18;;;;;;;3.50;2.80;;;;;;;;;;5028029;28;20422;-87
2023/05/18 09:31:47;;;;;;;4.07;3.03;;;;;;;;;;5027775;28;20419;-87
2023/05/18 09:34:14;;;;;;;5.20;2.92;;;;;;;;;;5025495;28;20383;-86
2023/05/18 09:36:41;;;;;;;4.28;2.83;;;;;;;;;;5027291;28;20401;-86
2023/05/18 09:39:09;;;;;;;3.20;2.65;;;;;;;;;;5021900;28;20393;-85
2023/05/18 09:41:37;;;;;;;4.73;2.87;;;;;;;;;;5024884;28;20450;-83
2023/05/18 09:44:08;;;;;;;3.70;3.15;;;;;;;;;;5034634;28;20476;-84
2023/05/18 09:46:35;;;;;;;4.80;3.10;;;;;;;;;;5031081;28;20402;-82
2023/05/18 09:49:02;;;;;;;3.85;2.80;;;;;;;;;;5031197;28;20387;-88
2023/05/18 09:51:30;;;;;;;4.43;2.97;;;;;;;;;;5032222;28;20407;-85
2023/05/18 09:53:57;;;;;;;5.72;2.83;;;;;;;;;;5034733;28;20391;-85
2023/05/18 09:56:25;;;;;;;4.70;3.10;;;;;;;;;;5026524;28;20392;-84
2023/05/18 09:58:51;;;;;;;4.05;2.83;;;;;;;;;;5027045;28;20387;-86
2023/05/18 10:01:17;;;;;;;4.03;2.70;;;;;;;;;;5015035;28;20419;-85
2023/05/18 10:03:47;;;;;;;4.50;2.67;;;;;;;;;;5022200;28;20445;-86
2023/05/18 10:06:13;;;;;;;3.08;2.30;;;;;;;;;;5028723;28;20838;-85
2023/05/18 10:08:39;;;;;;;3.85;3.03;;;;;;;;;;5032768;28;20398;-85
2023/05/18 10:11:05;;;;;;;3.47;2.72;;;;;;;;;;5034639;28;20391;-84
2023/05/18 10:13:32;;;;;;;4.13;2.72;;;;;;;;;;5034547;28;20725;-84
2023/05/18 10:15:59;;;;;;;4.03;2.65;;;;;;;;;;5032680;28;20395;-84
2023/05/18 10:18:28;;;;;;;4.55;2.78;;;;;;;;;;5034138;28;20453;-85
2023/05/18 10:20:56;;;;;;;4.82;2.85;;;;;;;;;;5034080;28;20401;-85
2023/05/18 10:23:23;;;;;;;5.03;2.47;;;;;;;;;;5032737;28;20412;-84
2023/05/18 10:25:50;;;;;;;5.17;2.43;;;;;;;;;;5033362;28;20937;-87
2023/05/18 10:28:36;;;;;;;3.60;2.72;;;;;;;;;;5033229;28;20438;-84
2023/05/18 10:31:03;;;;;;;5.15;2.60;;;;;;;;;;5021347;28;20421;-85
2023/05/18 10:33:31;;;;;;;4.25;2.67;;;;;;;;;;5026576;28;20394;-86
2023/05/18 10:35:57;;;;;;;4.38;2.50;;;;;;;;;;5034193;28;20442;-84
2023/05/18 10:38:24;;;;;;;4.68;2.65;;;;;;;;;;5033280;28;20461;-85
2023/05/18 10:40:52;;;;;;;4.75;2.42;;;;;;;;;;5033733;28;20383;-85
2023/05/18 10:43:19;;;;;;;4.13;2.38;;;;;;;;;;5026913;28;20397;-84
2023/05/18 10:45:46;;;;;;;3.03;2.40;;;;;;;;;;5032101;28;20390;-85
2023/05/18 10:48:13;;;;;;;3.60;2.60;;;;;;;;;;5018835;28;20373;-85
2023/05/18 10:50:39;;;;;;;4.32;2.60;;;;;;;;;;5033484;28;20862;-85
2023/05/18 10:53:05;;;;;;;4.75;2.55;;;;;;;;;;5032549;28;20407;-84
2023/05/18 10:55:32;;;;;;;6.07;2.80;;;;;;;;;;5032137;28;20422;-83
2023/05/18 10:58:00;;;;;;;4.57;2.53;;;;;;;;;;5033550;28;20398;-84
2023/05/18 11:00:26;;;;;;;4.00;2.63;;;;;;;;;;5016384;28;20460;-83
2023/05/18 11:02:53;;;;;;;4.28;2.50;;;;;;;;;;5017804;28;20957;-85
2023/05/18 11:05:26;;;;;;;3.60;2.63;;;;;;;;;;5019205;28;20388;-86
2023/05/18 11:08:00;;;;;;;5.90;2.70;;;;;;;;;;5029496;28;20489;-84
2023/05/18 11:10:32;;;;;;;4.93;3.05;;;;;;;;;;5029849;28;20387;-84
2023/05/18 11:13:01;;;;;;;5.13;2.83;;;;;;;;;;5032113;28;20394;-84
2023/05/18 11:15:58;;;;;;;3.03;2.60;;;;;;;;;;5029294;28;20399;-83
2023/05/18 11:18:38;;;;;;;5.18;2.50;;;;;;;;;;4997100;28;20446;-84
2023/05/18 11:21:04;;;;;;;4.93;2.70;;;;;;;;;;5031403;28;20379;-84
2023/05/18 11:23:33;;;;;;;6.22;2.78;;;;;;;;;;5025883;28;20762;-86
2023/05/18 11:26:03;;;;;;;3.83;2.45;;;;;;;;;;5032439;28;20877;-87
2023/05/18 11:28:30;;;;;;;3.88;2.78;;;;;;;;;;5028677;28;20446;-85
2023/05/18 11:30:56;;;;;;;4.55;2.58;;;;;;;;;;5017313;28;20383;-88
2023/05/18 11:33:31;;;;;;;4.30;2.95;;;;;;;;;;5022089;28;20395;-85
2023/05/18 11:36:02;;;;;;;4.35;2.55;;;;;;;;;;5030158;28;20383;-86
2023/05/18 11:38:49;;;;;;;4.55;2.42;;;;;;;;;;5032614;28;20478;-89
2023/05/18 11:41:30;;;;;;;3.90;2.22;;;;;;;;;;5014441;28;20824;-85
2023/05/18 11:44:08;;;;;;;3.43;2.30;;;;;;;;;;5018650;28;20628;-86
2023/05/18 11:46:35;;;;;;;4.93;2.88;;;;;;;;;;5020211;28;20454;-85
2023/05/18 11:49:07;;;;;;;3.60;2.45;;;;;;;;;;5012401;28;20393;-85
2023/05/18 11:51:33;;;;;;;2.85;2.17;;;;;;;;;;5030063;28;20884;-84
2023/05/18 11:54:00;;;;;;;4.00;2.50;;;;;;;;;;5032257;28;20430;-84
2023/05/18 11:56:26;;;;;;;3.58;2.10;;;;;;;;;;5030589;28;20387;-85
2023/05/18 11:59:12;;;;;;;3.50;2.30;;;;;;;;;;5019969;28;20913;-85
2023/05/18 12:01:38;;;;;;;3.03;1.92;;;;;;;;;;5019070;28;20421;-84
2023/05/18 12:04:04;;;;;;;3.92;2.30;;;;;;;;;;5032186;28;20392;-85
2023/05/18 12:06:31;;;;;;;3.13;2.27;;;;;;;;;;5030464;28;20411;-85
2023/05/18 12:08:58;;;;;;;3.25;2.10;;;;;;;;;;5013754;28;20385;-84
2023/05/18 12:11:25;;;;;;;3.22;2.03;;;;;;;;;;5024463;28;20802;-84
2023/05/18 12:13:52;;;;;;;4.63;2.05;;;;;;;;;;5030500;28;20383;-84
2023/05/18 12:16:18;;;;;;;3.67;2.05;;;;;;;;;;5030722;28;20401;-85
2023/05/18 12:18:51;;;;;;;3.60;2.33;;;;;;;;;;5031081;28;20485;-84
2023/05/18 12:21:21;;;;;;;2.55;2.00;;;;;;;;;;5030515;28;20418;-84
2023/05/18 12:23:47;;;;;;;3.88;2.00;;;;;;;;;;5030439;28;20399;-84
2023/05/18 12:26:13;;;;;;;2.40;2.00;;;;;;;;;;5030224;28;20754;-83
2023/05/18 12:28:39;;;;;;;3.83;2.53;;;;;;;;;;5031563;28;20473;-84
2023/05/18 12:31:07;;;;;;;4.53;2.65;;;;;;;;;;5031326;28;20383;-88
2023/05/18 12:33:33;;;;;;;3.25;2.20;;;;;;;;;;5030714;28;20449;-85
2023/05/18 12:35:59;;;;;;;4.17;2.17;;;;;;;;;;5014948;28;20453;-82
2023/05/18 12:38:31;;;;;;;2.70;2.10;;;;;;;;;;5026743;28;20393;-85
2023/05/18 12:40:57;;;;;;;3.33;2.13;;;;;;;;;;5031233;28;20872;-84
2023/05/18 12:43:25;;;;;;;3.15;2.05;;;;;;;;;;5028674;28;20422;-85
2023/05/18 12:45:52;;;;;;;2.33;1.90;;;;;;;;;;5027967;28;20981;-85
2023/05/18 12:48:18;;;;;;;3.65;2.17;;;;;;;;;;5031018;28;20397;-84
2023/05/18 12:50:48;;;;;;;4.80;2.80;;;;;;;;;;5031743;28;20462;-84
2023/05/18 12:53:16;;;;;;;5.90;2.70;;;;;;;;;;5030944;28;20494;-83
2023/05/18 12:55:43;;;;;;;6.03;2.30;;;;;;;;;;5031596;28;20817;-84
2023/05/18 12:58:17;;;;;;;3.38;2.28;;;;;;;;;;5031539;28;20430;-84
2023/05/18 13:00:44;;;;;;;3.28;2.17;;;;;;;;;;5031290;28;20380;-85
2023/05/18 13:03:14;;;;;;;5.07;2.43;;;;;;;;;;5026847;28;20455;-86
2023/05/18 13:05:41;;;;;;;3.22;1.95;;;;;;;;;;5029228;28;20406;-84
2023/05/18 13:08:08;;;;;;;3.22;2.30;;;;;;;;;;5026727;28;20878;-83
2023/05/18 13:10:34;;;;;;;3.05;2.10;;;;;;;;;;5028259;28;20399;-83
2023/05/18 13:13:02;;;;;;;3.83;2.20;;;;;;;;;;5023305;28;20394;-85
2023/05/18 13:15:38;;;;;;;3.53;2.28;;;;;;;;;;5029383;28;20395;-87
2023/05/18 13:18:11;;;;;;;3.75;2.65;;;;;;;;;;5024635;28;20850;-81
2023/05/18 13:20:44;;;;;;;3.03;2.17;;;;;;;;;;5022249;28;20394;-84
2023/05/18 13:23:11;;;;;;;3.30;2.13;;;;;;;;;;5027670;28;20416;-82
2023/05/18 13:25:37;;;;;;;4.87;2.30;;;;;;;;;;5011354;28;20392;-81
2023/05/18 13:28:04;;;;;;;3.55;2.25;;;;;;;;;;5011228;28;20381;-81
2023/05/18 13:30:30;;;;;;;4.20;2.28;;;;;;;;;;5011162;28;20392;-81
2023/05/18 13:32:56;;;;;;;4.63;2.35;;;;;;;;;;5018962;28;20406;-82
2023/05/18 13:35:22;;;;;;;3.40;2.25;;;;;;;;;;5015760;28;20405;-81
2023/05/18 13:37:49;;;;;;;4.03;2.22;;;;;;;;;;5011444;28;20435;-82
2023/05/18 13:40:19;;;;;;;3.42;2.30;;;;;;;;;;5011584;28;20389;-81
2023/05/18 13:42:45;;;;;;;2.85;2.38;;;;;;;;;;5015821;28;20439;-81
2023/05/18 13:45:11;;;;;;;3.95;2.40;;;;;;;;;;5019057;28;20392;-80
2023/05/18 13:47:38;;;;;;;3.97;3.00;;;;;;;;;;5010930;28;20413;-80
2023/05/18 13:50:07;;;;;;;2.95;2.38;;;;;;;;;;5010965;28;20834;-84
2023/05/18 13:52:34;;;;;;;3.40;2.00;;;;;;;;;;5026264;28;20388;-82
2023/05/18 13:55:00;;;;;;;2.97;2.00;;;;;;;;;;5020998;28;20854;-82
2023/05/18 13:57:26;;;;;;;3.22;2.20;;;;;;;;;;5024689;28;20398;-83
2023/05/18 13:59:52;;;;;;;3.72;2.15;;;;;;;;;;5031015;28;20489;-83
2023/05/18 14:02:19;;;;;;;5.43;3.90;;;;;;;;;;5024047;28;20905;-86
2023/05/18 14:04:45;;;;;;;3.00;2.20;;;;;;;;;;5030743;28;20390;-86
2023/05/18 14:07:11;;;;;;;4.15;2.28;;;;;;;;;;5029413;28;20410;-85
2023/05/18 14:09:37;;;;;;;2.40;1.90;;;;;;;;;;5030833;28;20770;-84
2023/05/18 14:12:04;;;;;;;3.20;1.98;;;;;;;;;;5029631;28;20445;-87
2023/05/18 14:14:30;;;;;;;2.75;1.83;;;;;;;;;;5030542;28;20395;-89
2023/05/18 14:16:56;;;;;;;3.03;2.17;;;;;;;;;;5029690;28;20406;-86
2023/05/18 14:19:22;;;;;;;3.15;2.00;;;;;;;;;;5026043;28;20394;-86
2023/05/18 14:21:48;;;;;;;3.90;2.03;;;;;;;;;;5015276;28;20496;-86
2023/05/18 14:24:14;;;;;;;8.70;2.35;;;;;;;;;;5030063;28;20425;-85
2023/05/18 14:26:40;;;;;;;5.28;2.80;;;;;;;;;;5030221;28;20390;-84
2023/05/18 14:29:06;;;;;;;3.97;2.47;;;;;;;;;;5033563;28;20383;-80
2023/05/18 14:31:34;;;;;;;5.25;2.67;;;;;;;;;;5032902;28;20397;-80
2023/05/18 14:34:00;;;;;;;4.93;2.30;;;;;;;;;;5015501;28;20393;-80
2023/05/18 14:36:25;;;;;;;4.03;2.78;;;;;;;;;;5014404;28;20466;-80
2023/05/18 14:38:51;;;;;;;3.13;2.70;;;;;;;;;;5014063;28;20491;-79
2023/05/18 14:41:18;;;;;;;3.40;2.28;;;;;;;;;;5020936;28;20414;-80
2023/05/18 14:43:45;;;;;;;3.47;2.47;;;;;;;;;;5019985;28;20492;-80